Time;durP1;ratioP1;P1;durP2;ratioP2;P2;SDS_P1;SDS_P2;PMS_P1;PMS_P2;Temp;Humidity;BMP_temperature;BMP_pressure;BME280_temperature;BME280_humidity;BME280_pressure;Samples;Min_cycle;Max_cycle;Signal;HPM_P1;HPM_P2
2021/07/01 00:01:27;;;;;;;9.95;6.10;;;;;;;18.48;81.72;98145.22;5109382;27;20397;-60
2021/07/01 00:04:04;;;;;;;9.20;5.07;;;;;;;18.48;81.89;98151.38;5109295;27;20140;-59
2021/07/01 00:06:41;;;;;;;8.85;6.25;;;;;;;18.49;81.85;98146.78;5109131;27;20597;-59
2021/07/01 00:09:18;;;;;;;9.07;6.13;;;;;;;18.46;82.29;98145.53;5108985;27;20224;-59
2021/07/01 00:11:59;;;;;;;10.25;5.47;;;;;;;18.45;82.42;98145.88;5109185;27;20395;-59
2021/07/01 00:14:36;;;;;;;9.85;5.78;;;;;;;18.44;82.58;98145.06;5108860;27;20754;-59
2021/07/01 00:17:12;;;;;;;6.60;5.05;;;;;;;18.47;82.18;98141.75;5109309;27;20133;-58
2021/07/01 00:19:49;;;;;;;6.28;5.03;;;;;;;18.51;82.18;98141.91;5109191;27;20619;-57
2021/07/01 00:22:25;;;;;;;8.18;5.68;;;;;;;18.49;82.26;98139.53;5109287;27;20482;-57
2021/07/01 00:25:07;;;;;;;8.57;5.15;;;;;;;18.48;82.05;98139.88;5108938;27;20132;-59
2021/07/01 00:27:45;;;;;;;7.57;5.07;;;;;;;18.50;82.34;98137.63;5109436;27;20391;-58
2021/07/01 00:30:23;;;;;;;6.45;4.78;;;;;;;18.49;81.97;98142.22;5109028;27;20384;-58
2021/07/01 00:33:00;;;;;;;7.55;4.97;;;;;;;18.47;81.97;98138.28;5109406;27;20137;-59
2021/07/01 00:35:36;;;;;;;4.68;4.18;;;;;;;18.49;82.01;98138.75;5088606;27;20133;-59
2021/07/01 00:38:13;;;;;;;12.00;4.97;;;;;;;18.50;82.18;98143.00;5109338;27;20136;-58
2021/07/01 00:40:49;;;;;;;7.15;4.97;;;;;;;18.51;82.01;98141.91;5108895;27;20137;-59
2021/07/01 00:43:28;;;;;;;5.00;4.50;;;;;;;18.54;82.00;98139.38;5109302;27;20380;-59
2021/07/01 00:46:04;;;;;;;6.10;4.70;;;;;;;18.54;81.74;98144.72;5068672;28;20134;-59
2021/07/01 00:48:41;;;;;;;7.40;4.82;;;;;;;18.54;81.77;98144.72;5109318;27;20132;-60
2021/07/01 00:51:19;;;;;;;7.35;5.43;;;;;;;18.56;81.56;98145.22;5109352;27;20393;-59
2021/07/01 00:53:56;;;;;;;7.72;5.30;;;;;;;18.58;81.70;98142.97;5150182;27;20603;-58
2021/07/01 00:56:37;;;;;;;9.13;5.60;;;;;;;18.56;81.59;98142.53;5109275;27;20391;-59
2021/07/01 00:59:14;;;;;;;6.68;5.20;;;;;;;18.58;81.54;98151.03;5068782;28;20391;-59
2021/07/01 01:01:50;;;;;;;7.97;6.07;;;;;;;18.59;81.61;98149.16;5109282;27;20482;-59
2021/07/01 01:04:27;;;;;;;8.40;6.35;;;;;;;18.57;81.72;98151.38;5109375;27;20136;-59
2021/07/01 01:07:05;;;;;;;9.52;6.40;;;;;;;18.55;81.67;98148.19;5109318;27;20391;-59
2021/07/01 01:09:44;;;;;;;10.02;7.05;;;;;;;18.54;81.53;98152.78;5108814;27;20399;-59
2021/07/01 01:12:21;;;;;;;10.80;6.47;;;;;;;18.54;81.65;98152.78;5109335;27;20406;-59
2021/07/01 01:14:58;;;;;;;9.85;6.95;;;;;;;18.54;81.90;98158.16;5068666;28;20592;-59
2021/07/01 01:17:37;;;;;;;9.23;6.03;;;;;;;18.51;81.71;98158.78;5109308;27;20393;-59
2021/07/01 01:20:15;;;;;;;7.95;7.03;;;;;;;18.52;82.02;98160.34;5109344;27;20389;-59
2021/07/01 01:22:54;;;;;;;8.00;6.25;;;;;;;18.52;82.24;98146.16;5109289;27;20383;-60
2021/07/01 01:25:31;;;;;;;6.57;5.60;;;;;;;18.53;82.43;98156.59;5109196;27;20132;-59
2021/07/01 01:28:08;;;;;;;8.20;6.18;;;;;;;18.52;82.38;98151.53;5109348;27;20139;-59
2021/07/01 01:30:45;;;;;;;9.20;6.18;;;;;;;18.50;82.81;98148.38;5109187;27;20124;-59
2021/07/01 01:33:25;;;;;;;8.40;6.78;;;;;;;18.51;82.75;98145.38;5109359;27;20384;-59
2021/07/01 01:36:04;;;;;;;12.65;6.53;;;;;;;18.48;82.83;98142.53;5108902;27;20407;-58
2021/07/01 01:38:44;;;;;;;11.82;6.85;;;;;;;18.49;82.82;98154.84;5109223;27;20797;-58
2021/07/01 01:41:44;;;;;;;16.38;7.05;;;;;;;18.47;82.99;98140.94;5109353;27;20893;-59
2021/07/01 01:44:22;;;;;;;16.70;7.35;;;;;;;18.50;82.93;98135.75;5108946;27;20387;-58
2021/07/01 01:46:59;;;;;;;12.82;6.43;;;;;;;18.52;83.07;98130.84;5068795;28;20134;-58
2021/07/01 01:49:37;;;;;;;10.50;5.60;;;;;;;18.55;82.95;98135.56;5108910;27;20391;-58
2021/07/01 01:52:14;;;;;;;8.02;4.85;;;;;;;18.56;82.67;98136.34;5150495;27;20131;-59
2021/07/01 01:54:53;;;;;;;10.93;5.20;;;;;;;18.60;82.64;98131.94;5068769;28;20386;-59
2021/07/01 01:57:30;;;;;;;12.68;5.63;;;;;;;18.63;82.48;98130.50;5109288;27;20397;-59
2021/07/01 02:00:29;;;;;;;8.52;4.85;;;;;;;18.66;82.70;98127.19;5109010;27;20124;-58
2021/07/01 02:03:07;;;;;;;8.18;4.80;;;;;;;18.67;82.71;98123.38;5109332;27;20182;-59
2021/07/01 02:05:52;;;;;;;6.00;4.55;;;;;;;18.69;82.42;98127.31;5068770;28;20387;-58
2021/07/01 02:08:30;;;;;;;5.50;4.90;;;;;;;18.72;82.40;98128.59;5109344;27;20136;-59
2021/07/01 02:11:09;;;;;;;5.50;4.50;;;;;;;18.80;82.05;98138.53;5025057;28;20390;-59
2021/07/01 02:13:45;;;;;;;6.82;4.80;;;;;;;18.75;82.16;98131.44;5109218;27;20133;-59
2021/07/01 02:16:55;;;;;;;6.32;4.60;;;;;;;18.71;82.02;98132.38;5109330;27;20384;-59
2021/07/01 02:19:34;;;;;;;5.05;4.15;;;;;;;18.76;81.75;98146.41;5068665;28;20888;-58
2021/07/01 02:22:14;;;;;;;8.98;5.40;;;;;;;18.77;82.17;98137.28;5109515;27;20384;-59
2021/07/01 02:24:53;;;;;;;8.35;5.03;;;;;;;18.79;81.98;98140.41;5109268;27;20753;-59
2021/07/01 02:27:32;;;;;;;7.35;5.07;;;;;;;18.80;82.00;98142.00;5088952;27;20396;-57
2021/07/01 02:30:14;;;;;;;8.40;4.95;;;;;;;18.80;81.91;98135.84;5108967;27;20395;-59
2021/07/01 02:32:53;;;;;;;7.05;5.60;;;;;;;18.78;81.66;98138.84;5109253;27;20932;-59
2021/07/01 02:35:29;;;;;;;8.52;6.78;;;;;;;18.76;81.83;98146.41;5109323;27;20155;-59
2021/07/01 02:38:25;;;;;;;7.90;5.82;;;;;;;18.79;81.94;98147.69;5109333;27;20387;-59
2021/07/01 02:41:13;;;;;;;5.70;4.95;;;;;;;18.77;81.68;98147.22;5109024;27;20380;-58
2021/07/01 02:43:53;;;;;;;12.35;8.50;;;;;;;18.83;81.71;98149.41;5109283;27;20395;-58
2021/07/01 02:46:48;;;;;;;7.53;6.03;;;;;;;18.87;81.35;98144.19;5109327;27;20404;-59
2021/07/01 02:49:35;;;;;;;7.82;5.82;;;;;;;18.91;81.35;98149.69;5109368;27;20379;-59
2021/07/01 02:52:22;;;;;;;7.75;6.50;;;;;;;18.83;81.82;98149.41;5109324;27;20399;-58
2021/07/01 02:54:59;;;;;;;7.78;6.03;;;;;;;18.93;81.29;98161.69;5109317;27;20137;-59
2021/07/01 02:57:38;;;;;;;7.40;5.80;;;;;;;18.95;81.07;98164.06;5068722;28;20891;-60
2021/07/01 03:00:19;;;;;;;9.68;7.70;;;;;;;18.95;81.24;98172.91;5109307;27;20722;-59
2021/07/01 03:03:02;;;;;;;5.93;5.32;;;;;;;19.00;80.98;98175.41;5109456;27;20377;-59
2021/07/01 03:06:00;;;;;;;5.32;4.18;;;;;;;18.98;80.53;98177.63;5150535;27;20127;-59
2021/07/01 03:08:39;;;;;;;4.65;3.10;;;;;;;18.93;80.68;98177.78;5109261;27;20597;-59
2021/07/01 03:11:16;;;;;;;5.78;4.78;;;;;;;18.95;80.98;98169.44;5104142;27;1396457;-58
2021/07/01 03:13:54;;;;;;;3.85;3.53;;;;;;;18.91;81.17;98168.47;5109307;27;20384;-58
2021/07/01 03:16:33;;;;;;;3.97;3.45;;;;;;;18.95;80.97;98170.22;5109211;27;20386;-59
2021/07/01 03:19:10;;;;;;;5.03;3.13;;;;;;;19.03;81.03;98165.91;5170880;27;20390;-59
2021/07/01 03:22:06;;;;;;;5.60;5.00;;;;;;;19.06;80.40;98170.66;5109038;27;20380;-58
2021/07/01 03:24:44;;;;;;;5.03;4.47;;;;;;;19.09;79.95;98164.63;5109063;27;20452;-59
2021/07/01 03:27:22;;;;;;;9.15;5.35;;;;;;;19.16;80.37;98174.88;5068608;27;20397;-59
2021/07/01 03:30:01;;;;;;;7.57;5.47;;;;;;;19.25;80.58;98170.25;5109196;27;20406;-58
2021/07/01 03:32:37;;;;;;;4.00;3.47;;;;;;;19.31;79.57;98179.69;5109243;27;20129;-57
2021/07/01 03:35:14;;;;;;;7.80;6.32;;;;;;;19.31;79.92;98171.63;5109164;27;20136;-58
2021/07/01 03:38:10;;;;;;;7.50;4.93;;;;;;;19.31;80.12;98174.31;5005750;28;20387;-58
2021/07/01 03:41:05;;;;;;;5.13;4.22;;;;;;;19.39;79.78;98178.88;5109238;27;20392;-59
2021/07/01 03:43:47;;;;;;;4.25;3.85;;;;;;;19.42;81.02;98177.44;5109241;27;20396;-58
2021/07/01 03:46:25;;;;;;;8.55;5.47;;;;;;;19.49;80.32;98175.78;5109387;27;20383;-59
2021/07/01 03:49:02;;;;;;;7.00;5.55;;;;;;;19.46;79.95;98181.03;5109275;27;20132;-61
2021/07/01 03:51:54;;;;;;;9.63;7.18;;;;;;;19.43;80.34;98182.47;5109360;27;20380;-59
2021/07/01 03:54:42;;;;;;;9.23;6.00;;;;;;;19.53;79.72;98178.63;5108953;27;20395;-59
2021/07/01 03:57:22;;;;;;;4.82;4.15;;;;;;;19.59;79.79;98188.09;5068641;28;20412;-59
2021/07/01 04:00:02;;;;;;;9.43;6.50;;;;;;;19.58;80.13;98189.19;5068647;28;20402;-59
2021/07/01 04:03:02;;;;;;;10.27;6.90;;;;;;;19.62;80.23;98192.00;5068662;28;20389;-58
2021/07/01 04:06:02;;;;;;;9.98;7.80;;;;;;;19.69;79.89;98186.94;5109216;27;20194;-59
2021/07/01 04:08:40;;;;;;;10.07;6.95;;;;;;;19.68;80.12;98185.38;5129727;27;20387;-60
2021/07/01 04:11:18;;;;;;;7.07;4.95;;;;;;;19.78;79.49;98192.25;5109317;27;20927;-59
2021/07/01 04:13:54;;;;;;;6.22;5.53;;;;;;;19.77;79.50;98180.72;5109189;27;20509;-59
2021/07/01 04:16:50;;;;;;;5.72;3.95;;;;;;;19.89;79.14;98190.75;5088906;27;20759;-59
2021/07/01 04:19:46;;;;;;;4.22;3.83;;;;;;;19.84;79.06;98185.56;5109860;27;20724;-59
2021/07/01 04:22:42;;;;;;;7.65;3.40;;;;;;;19.92;79.47;98190.09;5088912;28;20386;-59
2021/07/01 04:25:38;;;;;;;3.22;2.92;;;;;;;20.15;77.97;98198.63;5109099;27;20396;-60
2021/07/01 04:28:14;;;;;;;6.20;3.78;;;;;;;20.42;77.02;98200.75;5109182;27;20135;-59
2021/07/01 04:30:52;;;;;;;4.30;3.47;;;;;;;20.57;76.78;98199.38;5108564;27;20896;-59
2021/07/01 04:33:47;;;;;;;5.13;3.83;;;;;;;20.50;76.47;98199.09;5109409;27;20407;-59
2021/07/01 04:36:23;;;;;;;3.40;3.00;;;;;;;20.68;75.70;98196.25;5109357;27;20133;-59
2021/07/01 04:39:00;;;;;;;2.90;2.60;;;;;;;20.81;75.02;98198.63;5068434;28;20499;-59
2021/07/01 04:41:43;;;;;;;3.35;3.00;;;;;;;20.82;74.68;98200.22;5068679;28;20888;-58
2021/07/01 04:44:19;;;;;;;3.25;2.90;;;;;;;20.85;74.49;98194.19;5108820;27;20474;-59
2021/07/01 04:46:58;;;;;;;4.63;2.30;;;;;;;20.89;74.09;98207.75;5088738;27;20382;-58
2021/07/01 04:49:36;;;;;;;2.85;2.58;;;;;;;20.91;74.40;98202.03;5108572;27;20388;-58
2021/07/01 04:52:40;;;;;;;2.65;2.38;;;;;;;21.05;74.09;98200.56;5109193;27;20407;-59
2021/07/01 04:55:55;;;;;;;3.05;2.55;;;;;;;21.24;73.28;98197.34;5109138;27;20391;-57
2021/07/01 04:58:49;;;;;;;3.08;2.72;;;;;;;21.54;72.99;98197.16;5109242;27;20376;-59
2021/07/01 05:01:47;;;;;;;2.40;2.20;;;;;;;21.81;71.30;98192.16;5171138;27;20177;-59
2021/07/01 05:04:50;;;;;;;2.35;2.15;;;;;;;21.78;70.73;98199.78;5109184;27;20392;-58
2021/07/01 05:07:27;;;;;;;3.30;2.10;;;;;;;21.74;70.86;98195.44;5109122;27;20621;-59
2021/07/01 05:10:04;;;;;;;3.05;2.22;;;;;;;21.82;70.65;98201.81;5068553;28;20130;-58
2021/07/01 05:13:20;;;;;;;2.65;2.22;;;;;;;21.77;71.69;98200.94;5108725;27;20132;-59
2021/07/01 05:15:59;;;;;;;2.90;2.30;;;;;;;21.61;71.26;98186.56;5106618;27;20406;-59
2021/07/01 05:18:36;;;;;;;3.78;2.97;;;;;;;21.58;71.72;98198.03;5109170;27;20388;-58
2021/07/01 05:21:43;;;;;;;3.10;2.28;;;;;;;21.49;73.36;98198.16;5149948;27;20386;-56
2021/07/01 05:24:52;;;;;;;2.55;2.20;;;;;;;21.64;73.80;98206.69;5108803;27;20407;-58
2021/07/01 05:27:45;;;;;;;2.95;2.00;;;;;;;22.21;74.27;98203.00;5068550;28;20761;-57
2021/07/01 05:30:41;;;;;;;1.95;1.52;;;;;;;22.63;72.16;98202.56;5108810;27;20384;-58
2021/07/01 05:33:37;;;;;;;1.73;1.52;;;;;;;22.76;71.65;98203.28;5150263;27;20377;-58
2021/07/01 05:36:14;;;;;;;1.30;1.20;;;;;;;22.80;69.64;98199.56;5149848;27;20404;-59
2021/07/01 05:38:54;;;;;;;1.30;1.20;;;;;;;22.73;69.64;98210.16;5108748;27;20919;-59
2021/07/01 05:41:34;;;;;;;1.60;1.42;;;;;;;22.51;69.77;98200.72;5108464;27;20384;-59
2021/07/01 05:44:12;;;;;;;1.80;1.13;;;;;;;22.36;70.39;98202.25;5107606;27;20400;-58
2021/07/01 05:47:02;;;;;;;1.30;1.20;;;;;;;22.30;70.58;98200.16;5105573;27;20415;-58
2021/07/01 05:49:40;;;;;;;1.63;1.50;;;;;;;22.27;70.85;98208.94;5107353;27;20384;-58
2021/07/01 05:52:22;;;;;;;2.08;1.30;;;;;;;22.13;71.23;98201.97;5106444;27;20610;-58
2021/07/01 05:55:00;;;;;;;1.17;1.08;;;;;;;21.99;72.46;98215.81;5105711;27;20383;-59
2021/07/01 05:57:38;;;;;;;1.38;1.27;;;;;;;22.00;72.39;98220.13;5067301;28;20395;-58
2021/07/01 06:00:18;;;;;;;1.65;1.30;;;;;;;22.04;74.07;98222.91;5065647;28;20407;-58
2021/07/01 06:03:00;;;;;;;1.50;1.10;;;;;;;21.83;76.15;98214.97;5105362;27;20400;-59
2021/07/01 06:05:38;;;;;;;2.85;1.45;;;;;;;21.85;76.50;98211.91;5106072;27;20129;-59
2021/07/01 06:08:39;;;;;;;3.33;1.42;;;;;;;21.87;76.76;98215.06;5107990;27;20380;-59
2021/07/01 06:11:16;;;;;;;0.93;0.93;;;;;;;21.86;73.63;98219.69;5108311;27;20404;-58
2021/07/01 06:13:53;;;;;;;2.00;1.10;;;;;;;21.93;74.98;98211.78;5067515;28;20130;-60
2021/07/01 06:16:31;;;;;;;1.50;1.40;;;;;;;21.94;73.59;98213.38;5106992;27;20135;-59
2021/07/01 06:19:09;;;;;;;1.38;1.27;;;;;;;22.01;73.62;98215.50;5107016;27;20388;-60
2021/07/01 06:21:49;;;;;;;1.48;1.30;;;;;;;22.10;73.66;98223.47;5067381;28;20584;-59
2021/07/01 06:24:28;;;;;;;2.28;1.42;;;;;;;22.17;72.53;98220.97;5107457;27;20383;-59
2021/07/01 06:27:05;;;;;;;3.13;1.95;;;;;;;22.33;71.79;98227.25;5108001;27;20404;-60
2021/07/01 06:29:42;;;;;;;4.13;3.30;;;;;;;22.17;71.98;98220.97;5067126;28;20135;-57
2021/07/01 06:32:20;;;;;;;4.75;3.45;;;;;;;22.12;71.89;98216.59;5068094;28;20394;-57
2021/07/01 06:34:57;;;;;;;3.97;3.58;;;;;;;22.15;72.16;98228.63;5108024;27;20503;-57
2021/07/01 06:37:34;;;;;;;3.47;3.17;;;;;;;22.00;73.30;98227.41;4883118;27;5227794;-58
2021/07/01 06:40:18;;;;;;;2.10;1.90;;;;;;;21.73;77.29;98234.31;5034507;28;20037;-58
2021/07/01 06:43:14;;;;;;;1.80;1.70;;;;;;;21.57;76.71;98223.44;5108622;27;20391;-57
2021/07/01 06:46:30;;;;;;;2.15;1.40;;;;;;;21.29;75.74;98224.06;5087365;27;20415;-57
2021/07/01 06:49:46;;;;;;;2.10;1.90;;;;;;;21.09;76.67;98228.44;5094976;27;1388718;-58
2021/07/01 06:52:44;;;;;;;1.75;1.58;;;;;;;20.92;78.01;98241.31;5148862;27;20123;-59
2021/07/01 06:55:43;;;;;;;1.38;1.27;;;;;;;20.61;80.26;98253.34;5107986;27;20394;-58
2021/07/01 06:58:32;;;;;;;1.70;1.60;;;;;;;20.40;82.44;98256.81;5108739;27;20897;-58
2021/07/01 07:01:11;;;;;;;3.33;1.85;;;;;;;20.41;83.07;98249.50;5087175;27;20433;-59
2021/07/01 07:03:48;;;;;;;1.65;1.55;;;;;;;20.56;81.05;98246.25;5108420;27;20924;-58
2021/07/01 07:06:28;;;;;;;2.45;1.80;;;;;;;20.77;84.21;98238.13;5107606;27;20151;-58
2021/07/01 07:09:06;;;;;;;3.28;1.80;;;;;;;21.12;83.20;98248.53;5108429;27;20380;-58
2021/07/01 07:11:44;;;;;;;2.20;1.90;;;;;;;21.26;81.74;98246.28;5108444;27;20495;-59
2021/07/01 07:14:19;;;;;;;1.83;1.70;;;;;;;21.39;78.89;98251.75;5093663;27;1509861;-58
2021/07/01 07:16:57;;;;;;;2.05;1.45;;;;;;;21.37;76.68;98254.75;5108389;27;20133;-57
2021/07/01 07:19:34;;;;;;;1.52;1.42;;;;;;;21.46;75.97;98258.13;5108052;27;20411;-58
2021/07/01 07:22:11;;;;;;;2.22;1.58;;;;;;;21.39;76.24;98266.00;5067286;28;20130;-59
2021/07/01 07:24:50;;;;;;;3.03;2.70;;;;;;;21.43;75.93;98269.59;5008003;28;20137;-58
2021/07/01 07:27:30;;;;;;;1.52;1.40;;;;;;;21.54;75.38;98267.25;5108702;27;20896;-60
2021/07/01 07:30:07;;;;;;;2.63;1.80;;;;;;;21.70;75.70;98264.66;5107775;27;20917;-59
2021/07/01 07:32:46;;;;;;;2.53;1.73;;;;;;;22.00;73.71;98270.56;5107911;27;20403;-59
2021/07/01 07:35:23;;;;;;;4.10;2.03;;;;;;;22.28;71.87;98276.06;5107920;27;20396;-59
2021/07/01 07:38:01;;;;;;;2.30;2.10;;;;;;;22.57;71.15;98274.16;5107858;27;20606;-58
2021/07/01 07:40:39;;;;;;;2.33;2.13;;;;;;;22.66;69.30;98286.38;5108308;27;20402;-59
2021/07/01 07:43:18;;;;;;;3.70;2.05;;;;;;;22.55;69.04;98273.72;5108370;27;20743;-60
2021/07/01 07:45:56;;;;;;;3.65;2.30;;;;;;;22.34;70.76;98279.31;5108196;27;20384;-58
2021/07/01 07:48:32;;;;;;;3.10;2.80;;;;;;;22.33;71.08;98285.84;5108539;27;20391;-60
2021/07/01 07:51:10;;;;;;;3.28;2.78;;;;;;;22.43;70.04;98288.06;5087054;28;20144;-59
2021/07/01 07:53:49;;;;;;;2.95;2.72;;;;;;;22.30;71.04;98290.00;5067730;28;20394;-58
2021/07/01 07:56:36;;;;;;;2.92;2.58;;;;;;;22.43;69.77;98286.13;5108292;27;20734;-59
2021/07/01 07:59:14;;;;;;;2.72;2.42;;;;;;;22.61;67.96;98300.13;5107632;27;20396;-58
2021/07/01 08:01:52;;;;;;;3.28;2.70;;;;;;;22.94;66.77;98292.91;5108195;27;20376;-57
2021/07/01 08:04:33;;;;;;;3.55;2.60;;;;;;;22.92;67.28;98295.19;5108080;27;20391;-58
2021/07/01 08:07:11;;;;;;;2.85;2.55;;;;;;;22.95;67.00;98313.44;5067410;28;20398;-59
2021/07/01 08:09:48;;;;;;;3.33;2.90;;;;;;;22.54;67.10;98313.44;5108206;27;20135;-57
2021/07/01 08:12:25;;;;;;;3.47;2.80;;;;;;;22.45;67.00;98302.00;5108570;27;20129;-59
2021/07/01 08:15:03;;;;;;;2.67;2.47;;;;;;;22.37;66.17;98301.00;5107629;27;20912;-59
2021/07/01 08:17:45;;;;;;;2.75;2.50;;;;;;;22.37;66.85;98306.41;5067919;28;20783;-59
2021/07/01 08:20:23;;;;;;;2.53;2.33;;;;;;;22.45;66.97;98305.47;5107319;27;20388;-59
2021/07/01 08:23:01;;;;;;;2.75;2.40;;;;;;;22.62;66.42;98304.44;5108357;27;20376;-59
2021/07/01 08:25:40;;;;;;;3.30;2.92;;;;;;;22.71;67.33;98308.88;5108314;27;20395;-58
2021/07/01 08:28:21;;;;;;;4.05;2.47;;;;;;;22.92;65.07;98312.19;5107944;27;20384;-59
2021/07/01 08:31:15;;;;;;;2.70;2.20;;;;;;;22.64;65.82;98310.25;5108007;27;20381;-58
2021/07/01 08:33:53;;;;;;;2.17;2.03;;;;;;;22.55;62.60;98314.22;5108574;27;20923;-58
2021/07/01 08:36:33;;;;;;;1.88;1.77;;;;;;;22.75;61.90;98324.06;5067530;28;20395;-58
2021/07/01 08:39:11;;;;;;;2.45;2.20;;;;;;;22.70;62.30;98324.31;5108393;27;20391;-58
2021/07/01 08:41:55;;;;;;;3.45;2.40;;;;;;;22.76;61.05;98330.25;5108435;27;20139;-58
2021/07/01 08:44:43;;;;;;;2.28;2.10;;;;;;;22.85;62.15;98325.47;5066517;28;20387;-58
2021/07/01 08:47:22;;;;;;;2.50;2.30;;;;;;;23.04;61.56;98332.97;5108433;27;20381;-58
2021/07/01 08:50:05;;;;;;;2.33;2.10;;;;;;;23.09;61.41;98330.81;5107102;27;20380;-58
2021/07/01 08:53:04;;;;;;;2.75;2.42;;;;;;;23.07;62.42;98335.00;5108665;27;20391;-59
2021/07/01 08:55:41;;;;;;;2.60;2.40;;;;;;;23.06;62.43;98338.81;5067052;28;20395;-58
2021/07/01 08:58:22;;;;;;;2.85;2.65;;;;;;;22.95;63.54;98341.25;5107736;27;20152;-59
2021/07/01 09:01:03;;;;;;;2.80;2.58;;;;;;;22.74;64.21;98354.91;5067421;28;20395;-58
2021/07/01 09:03:43;;;;;;;2.75;2.55;;;;;;;22.55;64.14;98346.63;5108302;27;20392;-58
2021/07/01 09:06:26;;;;;;;3.08;2.88;;;;;;;22.60;65.03;98358.00;5107293;27;20845;-59
2021/07/01 09:09:07;;;;;;;3.25;2.90;;;;;;;22.68;64.30;98354.38;5108547;27;20396;-59
2021/07/01 09:11:45;;;;;;;4.00;2.65;;;;;;;22.86;63.37;98359.50;5005023;28;20388;-58
2021/07/01 09:14:24;;;;;;;3.15;2.85;;;;;;;23.04;63.58;98355.38;5107680;27;20384;-58
2021/07/01 09:17:07;;;;;;;3.45;2.90;;;;;;;23.17;64.23;98360.72;5108421;27;20395;-58
2021/07/01 09:19:59;;;;;;;3.08;2.88;;;;;;;23.30;62.39;98360.31;5148621;27;20180;-57
2021/07/01 09:22:36;;;;;;;3.28;2.90;;;;;;;23.46;60.65;98362.25;5108187;27;20392;-59
2021/07/01 09:25:12;;;;;;;3.30;3.00;;;;;;;23.43;61.69;98355.63;5089841;27;1416999;-59
2021/07/01 09:27:51;;;;;;;3.45;2.40;;;;;;;23.69;61.39;98357.03;5108101;27;20402;-58
2021/07/01 09:30:30;;;;;;;3.40;2.90;;;;;;;23.95;59.90;98365.44;5108380;27;20392;-58
2021/07/01 09:33:07;;;;;;;3.53;3.22;;;;;;;23.96;59.78;98352.69;5108468;27;20958;-59
2021/07/01 09:35:44;;;;;;;3.42;3.13;;;;;;;23.78;60.88;98355.75;5067061;28;20138;-61
2021/07/01 09:38:21;;;;;;;3.55;3.15;;;;;;;23.66;60.98;98372.03;5089118;27;20141;-58
2021/07/01 09:40:59;;;;;;;3.50;3.20;;;;;;;23.45;61.90;98360.69;5107573;27;20388;-58
2021/07/01 09:43:38;;;;;;;4.13;3.00;;;;;;;23.32;62.65;98352.66;5107414;27;20622;-59
2021/07/01 09:46:19;;;;;;;3.40;3.10;;;;;;;23.51;61.91;98353.91;5108145;27;20384;-59
2021/07/01 09:48:59;;;;;;;11.07;3.83;;;;;;;23.77;61.33;98350.69;5108475;27;20757;-59
2021/07/01 09:51:36;;;;;;;3.72;3.35;;;;;;;23.79;60.09;98351.91;5108164;27;20825;-58
2021/07/01 09:54:15;;;;;;;2.97;2.78;;;;;;;23.63;59.40;98356.50;5108296;27;20616;-59
2021/07/01 09:56:53;;;;;;;3.47;3.17;;;;;;;23.61;59.72;98350.66;5107778;27;20388;-59
2021/07/01 09:59:35;;;;;;;2.97;2.78;;;;;;;23.68;59.59;98347.34;5067313;28;20387;-59
2021/07/01 10:02:14;;;;;;;4.50;3.13;;;;;;;23.78;60.43;98358.47;5108321;27;20387;-58
2021/07/01 10:04:51;;;;;;;3.50;3.20;;;;;;;24.02;58.26;98360.19;5107070;27;20388;-58
2021/07/01 10:07:29;;;;;;;2.90;2.70;;;;;;;23.97;58.07;98367.78;5108211;27;20384;-59
2021/07/01 10:10:13;;;;;;;3.83;2.90;;;;;;;23.93;58.25;98367.69;5107810;27;20139;-58
2021/07/01 10:12:58;;;;;;;3.28;2.97;;;;;;;23.89;57.21;98371.47;5108040;27;20376;-59
2021/07/01 10:15:36;;;;;;;3.10;2.80;;;;;;;23.96;57.15;98374.34;5107938;27;20403;-58
2021/07/01 10:18:15;;;;;;;4.05;2.67;;;;;;;24.08;56.39;98363.41;5108499;27;20391;-58
2021/07/01 10:20:54;;;;;;;3.00;2.80;;;;;;;24.12;57.06;98366.19;5107602;27;20380;-57
2021/07/01 10:23:36;;;;;;;5.10;2.90;;;;;;;24.07;58.17;98372.66;5108508;27;20950;-59
2021/07/01 10:26:16;;;;;;;3.88;2.95;;;;;;;23.87;58.90;98377.22;4988110;28;20396;-58
2021/07/01 10:28:58;;;;;;;3.63;2.75;;;;;;;23.79;58.93;98373.53;5068131;28;20891;-59
2021/07/01 10:32:04;;;;;;;3.22;2.53;;;;;;;23.95;57.81;98370.84;5108695;27;20403;-59
2021/07/01 10:34:48;;;;;;;4.43;2.88;;;;;;;24.23;57.89;98378.06;5107824;27;20642;-59
2021/07/01 10:37:26;;;;;;;3.00;2.70;;;;;;;24.37;56.76;98372.19;5108564;27;20386;-59
2021/07/01 10:40:18;;;;;;;3.88;2.10;;;;;;;24.75;55.06;98381.53;5108292;27;20737;-60
2021/07/01 10:42:56;;;;;;;4.50;2.50;;;;;;;24.86;54.29;98380.59;5007571;28;20461;-57
2021/07/01 10:45:33;;;;;;;2.53;2.33;;;;;;;24.84;54.37;98387.50;5148970;27;20134;-57
2021/07/01 10:48:15;;;;;;;2.42;2.22;;;;;;;24.97;54.40;98388.16;5108442;27;20404;-59
2021/07/01 10:50:54;;;;;;;2.90;2.60;;;;;;;25.04;54.41;98386.38;5088915;27;20909;-58
2021/07/01 10:53:33;;;;;;;4.22;2.70;;;;;;;24.93;54.65;98399.72;5108546;27;20388;-59
2021/07/01 10:56:16;;;;;;;2.88;2.67;;;;;;;24.93;53.97;98390.78;5087379;27;20393;-59
2021/07/01 10:58:58;;;;;;;2.97;2.45;;;;;;;25.16;53.15;98385.47;5108198;27;20385;-59
2021/07/01 11:01:37;;;;;;;2.40;2.20;;;;;;;25.33;51.49;98390.44;5108297;27;20384;-58
2021/07/01 11:04:17;;;;;;;2.00;1.90;;;;;;;25.58;51.08;98379.25;5107405;27;20392;-59
2021/07/01 11:06:59;;;;;;;1.77;1.67;;;;;;;25.59;49.50;98383.53;5107709;27;20927;-59
2021/07/01 11:09:46;;;;;;;1.88;1.77;;;;;;;25.56;49.93;98393.19;5107123;27;20407;-58
2021/07/01 11:12:27;;;;;;;2.03;1.65;;;;;;;25.41;49.64;98390.56;5107708;27;20391;-59
2021/07/01 11:15:05;;;;;;;2.10;2.00;;;;;;;25.30;50.43;98383.03;5108127;27;20388;-59
2021/07/01 11:17:42;;;;;;;2.05;1.90;;;;;;;25.49;49.43;98382.19;5068017;28;20398;-59
2021/07/01 11:20:21;;;;;;;1.98;1.80;;;;;;;25.49;49.48;98389.56;5108124;27;20502;-58
2021/07/01 11:22:58;;;;;;;3.50;1.60;;;;;;;25.54;48.67;98392.75;5108636;27;20396;-57
2021/07/01 11:25:43;;;;;;;2.53;1.98;;;;;;;25.53;49.16;98388.47;5107536;27;20407;-59
2021/07/01 11:28:23;;;;;;;2.20;2.03;;;;;;;25.47;50.43;98394.53;5067376;28;20725;-57
2021/07/01 11:31:02;;;;;;;1.90;1.80;;;;;;;25.57;50.50;98392.03;5111881;27;20387;-56
2021/07/01 11:33:48;;;;;;;2.95;2.13;;;;;;;25.45;51.26;98402.28;5107312;27;20392;-59
2021/07/01 11:36:25;;;;;;;2.42;2.22;;;;;;;25.26;51.36;98393.00;5067655;28;20383;-58
2021/07/01 11:39:34;;;;;;;3.65;2.42;;;;;;;25.19;52.73;98395.59;5108540;27;20128;-58
2021/07/01 11:42:12;;;;;;;2.25;1.90;;;;;;;25.16;52.08;98399.03;5107427;27;20927;-56
2021/07/01 11:44:49;;;;;;;2.47;2.22;;;;;;;24.97;52.77;98402.47;5107204;27;20160;-58
2021/07/01 11:47:26;;;;;;;2.30;2.00;;;;;;;24.99;53.29;98405.63;5068118;28;20391;-56
2021/07/01 11:50:17;;;;;;;2.40;2.20;;;;;;;25.11;53.47;98415.53;5037260;28;20808;-57
2021/07/01 11:52:55;;;;;;;2.70;2.50;;;;;;;25.16;53.06;98415.28;5127450;27;20136;-57
2021/07/01 11:55:33;;;;;;;3.40;2.47;;;;;;;25.10;54.00;98417.47;5103931;27;20552;-60
2021/07/01 11:58:12;;;;;;;3.78;2.42;;;;;;;25.04;53.48;98413.47;5101483;27;20182;-57
2021/07/01 12:00:50;;;;;;;7.10;2.78;;;;;;;24.91;54.11;98415.56;5142817;27;20392;-55
2021/07/01 12:03:29;;;;;;;4.07;2.40;;;;;;;24.81;55.32;98412.63;5106768;27;20128;-59
2021/07/01 12:06:09;;;;;;;3.67;2.90;;;;;;;24.75;54.66;98414.03;5105966;27;20136;-56
2021/07/01 12:08:47;;;;;;;3.13;2.50;;;;;;;24.87;54.25;98411.19;5107261;27;20384;-55
2021/07/01 12:11:23;;;;;;;3.15;2.10;;;;;;;25.00;52.74;98407.22;5106667;27;20511;-58
2021/07/01 12:14:00;;;;;;;3.33;2.50;;;;;;;25.04;53.81;98399.94;5105192;27;20129;-57
2021/07/01 12:16:40;;;;;;;5.25;3.40;;;;;;;25.00;54.23;98403.69;5104947;27;20136;-56
2021/07/01 12:19:18;;;;;;;5.75;3.45;;;;;;;25.05;58.59;98403.41;5062955;27;20383;-57
2021/07/01 12:21:54;;;;;;;4.07;3.35;;;;;;;25.04;60.03;98404.56;5103908;27;20387;-57
2021/07/01 12:24:31;;;;;;;7.35;3.45;;;;;;;25.05;59.35;98417.75;5096714;27;20455;-58
2021/07/01 12:27:31;;;;;;;5.95;3.58;;;;;;;25.06;59.31;98407.69;5098374;27;20164;-56
2021/07/01 12:30:08;;;;;;;3.60;3.30;;;;;;;25.00;59.01;98414.53;5106986;27;20394;-57
2021/07/01 12:32:45;;;;;;;5.30;3.10;;;;;;;24.84;58.21;98403.78;5107798;27;20139;-58
2021/07/01 12:35:38;;;;;;;6.15;3.17;;;;;;;24.54;59.43;98401.59;5107228;27;20132;-58
2021/07/01 12:38:16;;;;;;;5.70;3.15;;;;;;;24.51;59.99;98404.25;5061241;28;20412;-58
2021/07/01 12:40:55;;;;;;;5.72;3.70;;;;;;;24.46;60.96;98399.88;5107669;27;20125;-57